Hovedside
METAR-TAF:

METAR-TAF

Lufthavner :

Ämari, Estland

Flystasjon

breddegrad: 59-15-44N, lengdegrad: 24-13-07E, høyde over havet: 20 m

Gjeldene værobservasjon

Denne rapporten ble laget for 1 time og 50 minutter siden, klokken 20:50 UTC
Vind 3 kt fra Nordøst
Temperatur 13°C
Luftfuktighet 100%
Trykk 1011 hPa
Sikt 10 km eller mer
Brutte skyer i en høyde av 5000 ft

METAR: EEEI 242050Z 05003KT 9999 BKN050 13/13 Q1011 NOSIG

Tid: 01:40 (22:40 UTC)

Varsel

Denne rapporten ble laget for 5 timer og 10 minutter siden, klokken 17:30 UTC
Varsel gyldig fra 24. klokken 18 UTC til 25. klokken 18 UTC
Vind 8 kt fra Nord-nordøst
Sikt 10 km eller mer
Spredte skyer i en høyde av 2000 ft
Midlertidig
fra 24. klokken 22 UTC til 25. klokken 06 UTC
Sikt: 0800 m
Brutte skyer i en høyde av 200 ft
tåkebanker

TAF: EEEI 241730Z 2418/2518 03008KT 9999 SCT020 TEMPO 2422/2506 0800 BCFG BKN002

Værobservasjoner og værvarsel for over 4000 flyplasser (METAR- og TAF-rapporter).

Tilgjengelige stasjoner er representert av de røde og gule prikkene på kartet.

Hold musepekeren over prikken for å se navnet på stasjonen.

Klikk så for å se værobservasjoner og -varsler.

For å forandre kartet kan du klikke på den grønne knappen med svart kryss for å zoome inn, på den grønne knappen med strek for å zoome ut, eller på de grønne pilene for å se tilstøtende kart.


METAR-TAF: